Spring Brook Township, Pennsylvania
Current Conditions -  °F | °C
As of 7:54 AM on Thursday 23 Oct 2014 (Local Time) from KAVP Reporting Station
Moderate Rain Moderate Rain  
Wind Chill: 40°   Ceiling: 1300
Heat Index: 45°   Visibility: 5mi
Dew Point: 41°   Wind: 10mph
Humidity: 86%   Direction: 340°NNW
Pressure: 29.87"   Gusts: NA
Location:  41.3369°N, 75.5571°W
Report Text: KAVP 231154Z AUTO 34009KT 5SM RA BR OVC013 07/05 A2987 RMK AO2 SLP116 P0008 60023 70041 T00720050 10089 20072 53003
Loading
Personal Weather Stations






























Interactive Weather Map
Tropical Storm Tracking
New forecast layout! Learn more

10-Day Weather Forecast

Advertisements
Track Severe Weather on mobile